Terminal Aerodrome Forecast
Issued by NWS

Home | Current Version | Previous Version | Text Only | Print | Product List | Glossary On
Versions: 1 2 3 4 5 6 7 8 9 10 11 12 13 14 15 16 17 18
000
FTUS45 KMSO 061830 AAA
TAFSMN
TAF AMD
KSMN 061830Z 0619/0718 01010KT 1 1/2SM -SN BR BKN040 OVC060
     FM062000 VRB02KT 4SM -SHSN BKN040 OVC060
     FM062200 VRB06KT P6SM VCSH BKN040
     FM070000 05005KT P6SM OVC050
      AMD LTD TO CLD VIS AND WIND=

USA.gov is the U.S. government's official web portal to all federal, state and local government web resources and services.